Farmhaven, Mississippi
Current Conditions -  °F | °C
As of 4:54 PM on Tuesday 27 Jan 2015 (Local Time) from KJAN Reporting Station
Clear Clear  
Wind Chill: 64°   Ceiling: Unl
Heat Index: 64°   Visibility: 10mi
Dew Point: 31°   Wind: 10mph
Humidity: 29%   Direction: 300°WNW
Pressure: 30.09"   Gusts: NA
Location:  32.6346°N, 89.9822°W
Report Text: KJAN 272254Z 30009KT 10SM CLR 18/M01 A3009 RMK AO2 SLP190 T01781006
Loading
Personal Weather Stations






























Interactive Weather Map New forecast layout! Learn more

10-Day Weather Forecast

Advertisements
Track Severe Weather on mobile